Terminal Aerodrome Forecast
Issued by NWS

Home | Current Version | Previous Version | Text Only | Print | Product List | Glossary On
Versions: 1 2 3 4 5 6 7 8 9 10 11 12 13 14 15 16 17 18 19 20 21 22 23 24 25 26 27 28 29
117
FTUS41 KPBZ 192329
TAFAGC
TAF
KAGC 192329Z 2000/2024 00000KT P6SM SCT015 BKN150
     FM200900 09004KT P6SM VCSH OVC050
     FM201300 13005KT 3SM -RA BR SCT008 OVC010 WS020/18035KT
     FM201600 16006KT 3SM -RA BKN008
     FM202000 21008KT P6SM VCSH SCT008 OVC015=

USA.gov is the U.S. government's official web portal to all federal, state and local government web resources and services.